Toba Leah II — WDF5117 — position and weather

sailwx.info

Track history (hours):
 
Tides and Currents Weather Stations Pressure Air Temp Water Temp Dewpoint Dewpoint Depression Visibility Wind Speed Wind Dir Waves Ship Positions

Toba Leah II

Owner: JEW CORP OF GREENWOOD, BLUFFTON, SC. More information available from US FCC via Universal Licensing System.

Last reported at 2017-Oct-15 23:43 UTC. Time now 2017-Oct-18 09:40 UTC.
Position N 37°55' W 122°21'.

Length 13 m.

Type: Sailing vessel. MMSI: 367543490.

Date/timePositionNaut miles runAvg speedWind from/ knotsBaromVisibWave heightAir tempDewpointWater temp
2017-Oct-15 23:43N 37°55' W 122°21'0 1.5
2017-Oct-15 23:29N 37°55' W 122°21'2 3.8
2017-Oct-15 23:00N 37°54' W 122°24'2 3.9
2017-Oct-15 22:30N 37°53' W 122°25'2 2.8
2017-Oct-15 21:45N 37°52' W 122°27'1 0.6
2017-Oct-15 20:39N 37°52' W 122°28'1 4.1
2017-Oct-15 20:30N 37°51' W 122°28'1 1.3
2017-Oct-15 19:57N 37°51' W 122°27'2 4.7
2017-Oct-15 19:26N 37°51' W 122°24'  
2017-Oct-09 00:15N 37°54' W 122°24'5 3.1
2017-Oct-08 22:43N 37°50' W 122°25'0 0.1
2017-Oct-08 20:54N 37°49' W 122°25'0 0.2
2017-Oct-08 20:30N 37°50' W 122°25'0 0.4
2017-Oct-08 19:59N 37°49' W 122°24'0 0.8
2017-Oct-08 19:30N 37°50' W 122°24'1 2.6
2017-Oct-08 18:59N 37°51' W 122°23'3 5.9
2017-Oct-08 18:30N 37°54' W 122°24'3 0.1
2017-Oct-08 00:34N 37°55' W 122°21'0 0.0
2017-Oct-08 00:27N 37°55' W 122°21'1 2.2
2017-Oct-07 23:59N 37°54' W 122°22'3 6.4
2017-Oct-07 23:30N 37°53' W 122°26'3 5.0
2017-Oct-07 22:52N 37°50' W 122°28'1 2.6
2017-Oct-07 22:25N 37°49' W 122°27'0 1.1
2017-Oct-07 22:00N 37°49' W 122°26'0 0.4
2017-Oct-07 21:29N 37°49' W 122°26'0 0.1
2017-Oct-07 21:00N 37°49' W 122°26'4 0.2
2017-Oct-06 23:30N 37°53' W 122°24'4 3.8
2017-Oct-06 22:34N 37°50' W 122°25'0 0.3
2017-Oct-06 22:22N 37°50' W 122°25'0 0.2
2017-Oct-06 21:46N 37°49' W 122°25'0 0.2
2017-Oct-06 21:18N 37°49' W 122°25'0 0.1
2017-Oct-06 20:41N 37°49' W 122°25'0 0.1
2017-Oct-06 20:14N 37°49' W 122°25'0 0.5
2017-Oct-06 19:45N 37°50' W 122°25'0 0.2
2017-Oct-06 19:30N 37°50' W 122°25'0 0.7
2017-Oct-06 18:52N 37°50' W 122°25'2 5.5
2017-Oct-06 18:30N 37°52' W 122°24'2 4.8
2017-Oct-06 18:00N 37°54' W 122°24'2 3.5
2017-Oct-06 17:25N 37°55' W 122°21'  
Track history (hours):
 
Tides and Currents Weather Stations Pressure Air Temp Water Temp Dewpoint Dewpoint Depression Visibility Wind Speed Wind Dir Waves Ship Positions

Toba Leah II

Owner: JEW CORP OF GREENWOOD, BLUFFTON, SC. More information available from US FCC via Universal Licensing System.

Last reported at 2017-Oct-15 23:43 UTC. Time now 2017-Oct-18 09:40 UTC.
Position N 37°55' W 122°21'.

Length 13 m.

Type: Sailing vessel. MMSI: 367543490.

Date/timePositionNaut miles runAvg speedWind from/ knotsBaromVisibWave heightAir tempDewpointWater temp
2017-Oct-15 23:43N 37°55' W 122°21'0 1.5
2017-Oct-15 23:29N 37°55' W 122°21'2 3.8
2017-Oct-15 23:00N 37°54' W 122°24'2 3.9
2017-Oct-15 22:30N 37°53' W 122°25'2 2.8
2017-Oct-15 21:45N 37°52' W 122°27'1 0.6
2017-Oct-15 20:39N 37°52' W 122°28'1 4.1
2017-Oct-15 20:30N 37°51' W 122°28'1 1.3
2017-Oct-15 19:57N 37°51' W 122°27'2 4.7
2017-Oct-15 19:26N 37°51' W 122°24'  
2017-Oct-09 00:15N 37°54' W 122°24'5 3.1
2017-Oct-08 22:43N 37°50' W 122°25'0 0.1
2017-Oct-08 20:54N 37°49' W 122°25'0 0.2
2017-Oct-08 20:30N 37°50' W 122°25'0 0.4
2017-Oct-08 19:59N 37°49' W 122°24'0 0.8
2017-Oct-08 19:30N 37°50' W 122°24'1 2.6
2017-Oct-08 18:59N 37°51' W 122°23'3 5.9
2017-Oct-08 18:30N 37°54' W 122°24'3 0.1
2017-Oct-08 00:34N 37°55' W 122°21'0 0.0
2017-Oct-08 00:27N 37°55' W 122°21'1 2.2
2017-Oct-07 23:59N 37°54' W 122°22'3 6.4
2017-Oct-07 23:30N 37°53' W 122°26'3 5.0
2017-Oct-07 22:52N 37°50' W 122°28'1 2.6
2017-Oct-07 22:25N 37°49' W 122°27'0 1.1
2017-Oct-07 22:00N 37°49' W 122°26'0 0.4
2017-Oct-07 21:29N 37°49' W 122°26'0 0.1
2017-Oct-07 21:00N 37°49' W 122°26'4 0.2
2017-Oct-06 23:30N 37°53' W 122°24'4 3.8
2017-Oct-06 22:34N 37°50' W 122°25'0 0.3
2017-Oct-06 22:22N 37°50' W 122°25'0 0.2
2017-Oct-06 21:46N 37°49' W 122°25'0 0.2
2017-Oct-06 21:18N 37°49' W 122°25'0 0.1
2017-Oct-06 20:41N 37°49' W 122°25'0 0.1
2017-Oct-06 20:14N 37°49' W 122°25'0 0.5
2017-Oct-06 19:45N 37°50' W 122°25'0 0.2
2017-Oct-06 19:30N 37°50' W 122°25'0 0.7
2017-Oct-06 18:52N 37°50' W 122°25'2 5.5
2017-Oct-06 18:30N 37°52' W 122°24'2 4.8
2017-Oct-06 18:00N 37°54' W 122°24'2 3.5
2017-Oct-06 17:25N 37°55' W 122°21'  

Dump ship's entire track history